createdAt,value
2022-08-08T00:00:52.414Z,20895.19
2022-08-08T00:03:13.211Z,20907.41
2022-08-08T00:06:04.540Z,20891.13
2022-08-08T00:08:48.982Z,20887.06
2022-08-08T00:11:25.688Z,20891.13
2022-08-08T00:14:58.733Z,20883.00
2022-08-08T00:17:35.353Z,20917.56
2022-08-08T00:20:26.102Z,20899.28
2022-08-08T00:22:59.291Z,20874.88
2022-08-08T00:25:39.039Z,20891.13
2022-08-08T00:28:35.622Z,20838.28
2022-08-08T00:32:28.191Z,20824.06
2022-08-08T00:34:50.680Z,20830.16
2022-08-08T00:37:47.764Z,20773.22
2022-08-08T00:41:12.219Z,20797.63
2022-08-08T00:44:38.695Z,20817.94
2022-08-08T00:48:05.485Z,20848.44
2022-08-08T00:51:42.402Z,20783.41
2022-08-08T00:54:45.806Z,20834.22
2022-08-08T00:57:59.110Z,20822.03
2022-08-08T01:00:35.923Z,20777.28
2022-08-08T01:03:54.188Z,20828.13
2022-08-08T01:07:54.791Z,20761.03
2022-08-08T01:11:39.095Z,20744.78
2022-08-08T01:14:57.399Z,20777.28
2022-08-08T01:18:25.581Z,20744.78
2022-08-08T01:22:13.046Z,20773.22
2022-08-08T01:25:43.127Z,20726.47
2022-08-08T01:28:32.143Z,20748.84
2022-08-08T01:32:13.741Z,20750.88
2022-08-08T01:35:40.481Z,20740.69
2022-08-08T01:38:51.357Z,20655.31
2022-08-08T01:41:43.810Z,20689.88
2022-08-08T01:44:35.180Z,20726.47
2022-08-08T01:47:59.036Z,20691.91
2022-08-08T01:50:37.308Z,20679.72
2022-08-08T01:55:15.593Z,20661.44
2022-08-08T01:56:34.548Z,20691.91
2022-08-08T01:59:38.048Z,20643.13
2022-08-08T02:02:45.168Z,20691.91
2022-08-08T02:05:55.874Z,20673.63
2022-08-08T02:08:35.819Z,20659.38
2022-08-08T02:11:23.420Z,20659.38
2022-08-08T02:14:00.998Z,20659.38
2022-08-08T02:16:57.737Z,20663.47
2022-08-08T02:20:08.221Z,20616.69
2022-08-08T02:22:52.568Z,20653.28
2022-08-08T02:25:33.051Z,20614.66
2022-08-08T02:28:35.010Z,20620.78
2022-08-08T02:31:43.953Z,20637.03
2022-08-08T02:34:33.043Z,20608.56
2022-08-08T02:37:53.359Z,20618.72
2022-08-08T02:40:17.866Z,20610.59
2022-08-08T02:44:42.313Z,20574.00
2022-08-08T02:46:59.488Z,20628.91
2022-08-08T02:50:17.589Z,20677.69
2022-08-08T02:53:09.519Z,20610.59
2022-08-08T02:56:36.027Z,20600.44
2022-08-08T03:00:31.444Z,20594.34
2022-08-08T03:05:05.143Z,20574.00
2022-08-08T03:07:58.351Z,20592.31
2022-08-08T03:11:47.403Z,20584.19
2022-08-08T03:15:58.850Z,20590.28
2022-08-08T03:17:39.688Z,20592.31
2022-08-08T03:20:10.500Z,20563.84
2022-08-08T03:22:56.313Z,20541.50
2022-08-08T03:25:36.212Z,20519.13
2022-08-08T03:28:14.391Z,20500.84
2022-08-08T03:30:49.124Z,20531.31
2022-08-08T03:33:56.134Z,20529.28
2022-08-08T03:36:27.814Z,20543.53
2022-08-08T03:39:14.964Z,20508.97
2022-08-08T03:42:12.266Z,20549.63
2022-08-08T03:44:35.671Z,20521.16
2022-08-08T03:47:19.572Z,20541.50
2022-08-08T03:50:01.172Z,20549.63
2022-08-08T03:52:34.103Z,20555.72
2022-08-08T03:55:55.120Z,20630.94
2022-08-08T03:58:31.129Z,20590.28
2022-08-08T04:01:01.889Z,20567.91
2022-08-08T04:03:57.932Z,20578.09
2022-08-08T04:06:29.996Z,20523.19
2022-08-08T04:09:06.741Z,20569.94
2022-08-08T04:11:58.930Z,20602.47
2022-08-08T04:14:34.566Z,20521.16
2022-08-08T04:17:07.117Z,20553.69
2022-08-08T04:19:51.874Z,20555.72
2022-08-08T04:22:24.167Z,20571.97
2022-08-08T04:24:52.880Z,20517.09
2022-08-08T04:28:01.498Z,20531.31
2022-08-08T04:30:18.317Z,20547.59
2022-08-08T04:32:48.169Z,20561.81
2022-08-08T04:35:18.233Z,20537.44
2022-08-08T04:37:51.257Z,20569.94
2022-08-08T04:40:24.157Z,20571.97
2022-08-08T04:42:57.142Z,20616.69
2022-08-08T04:45:26.716Z,20600.44
2022-08-08T04:47:57.144Z,20618.72
2022-08-08T04:50:28.246Z,20604.50
2022-08-08T04:53:05.125Z,20635.00
2022-08-08T04:55:55.162Z,20624.84
2022-08-08T04:58:26.224Z,20637.03
2022-08-08T05:00:54.411Z,20700.03
2022-08-08T05:04:11.360Z,20820.00
2022-08-08T05:06:13.383Z,20972.47
2022-08-08T05:08:51.723Z,21250.97
2022-08-08T05:11:22.827Z,21580.34
2022-08-08T05:13:57.686Z,21814.19
2022-08-08T05:16:52.053Z,22015.50
2022-08-08T05:20:11.851Z,22082.63
2022-08-08T05:22:09.847Z,21950.44
2022-08-08T05:24:40.142Z,21773.53
2022-08-08T05:27:08.973Z,21614.94
2022-08-08T05:29:38.470Z,21517.31
2022-08-08T05:32:12.786Z,21436.00
2022-08-08T05:34:49.297Z,21354.66
2022-08-08T05:37:39.007Z,21305.88
2022-08-08T05:40:16.544Z,21322.13
2022-08-08T05:42:51.330Z,21303.84
2022-08-08T05:45:25.684Z,21322.13
2022-08-08T05:48:12.204Z,21322.13
2022-08-08T05:50:43.340Z,21301.81
2022-08-08T05:53:54.517Z,21314.00
2022-08-08T05:56:10.995Z,21322.13
2022-08-08T05:58:57.618Z,21303.84
2022-08-08T06:01:55.922Z,21383.13
2022-08-08T06:04:24.438Z,21326.22
2022-08-08T06:06:56.606Z,21362.81
2022-08-08T06:10:00.317Z,21340.44
2022-08-08T06:12:30.198Z,21332.31
2022-08-08T06:15:03.307Z,21354.66
2022-08-08T06:17:51.035Z,21356.69
2022-08-08T06:20:22.964Z,21411.59
2022-08-08T06:22:56.429Z,21431.94
2022-08-08T06:25:33.119Z,21397.38
2022-08-08T06:28:20.347Z,21318.06
2022-08-08T06:31:02.450Z,21356.69
2022-08-08T06:34:27.496Z,21393.31
2022-08-08T06:36:52.996Z,21340.44
2022-08-08T06:39:23.627Z,21366.88
2022-08-08T06:41:58.595Z,21429.91
2022-08-08T06:44:31.958Z,21419.72
2022-08-08T06:47:02.302Z,21417.69
2022-08-08T06:49:56.350Z,21423.81
2022-08-08T06:52:22.951Z,21446.16
2022-08-08T06:54:58.510Z,21440.06
2022-08-08T06:57:29.432Z,21458.38
2022-08-08T07:00:13.306Z,21523.44
2022-08-08T07:02:52.797Z,21492.94
2022-08-08T07:05:29.814Z,21468.53
2022-08-08T07:08:16.616Z,21484.78
2022-08-08T07:10:52.712Z,21505.13
2022-08-08T07:13:25.061Z,21497.00
2022-08-08T07:16:04.794Z,21558.00
2022-08-08T07:18:57.510Z,21564.09
2022-08-08T07:21:35.728Z,21541.72
2022-08-08T07:24:11.095Z,21525.47
2022-08-08T07:26:46.812Z,21492.94
2022-08-08T07:29:59.949Z,21535.63
2022-08-08T07:32:09.735Z,21537.66
2022-08-08T07:34:48.342Z,21529.53
2022-08-08T07:37:49.625Z,21551.91
2022-08-08T07:40:21.097Z,21555.97
2022-08-08T07:42:59.540Z,21586.47
2022-08-08T07:45:34.892Z,21582.38
2022-08-08T07:48:15.977Z,21625.09
2022-08-08T07:50:47.371Z,21635.25
2022-08-08T07:54:02.367Z,21635.25
2022-08-08T07:56:35.320Z,21637.28
2022-08-08T07:59:08.919Z,21680.00
2022-08-08T08:02:34.911Z,21730.81
2022-08-08T08:04:41.365Z,21651.53
2022-08-08T08:07:10.898Z,21710.50
2022-08-08T08:09:42.469Z,21712.53
2022-08-08T08:12:31.424Z,21793.84
2022-08-08T08:15:05.558Z,21716.59
2022-08-08T08:17:47.562Z,21767.44
2022-08-08T08:20:20.646Z,21818.25
2022-08-08T08:22:48.902Z,21814.19
2022-08-08T08:25:35.852Z,21785.72
2022-08-08T08:28:09.387Z,21793.84
2022-08-08T08:30:39.324Z,21810.13
2022-08-08T08:33:11.032Z,21828.44
2022-08-08T08:36:18.630Z,21889.44
2022-08-08T08:38:29.268Z,21865.03
2022-08-08T08:41:06.274Z,21865.03
2022-08-08T08:43:46.284Z,21926.03
2022-08-08T08:46:17.544Z,21942.31
2022-08-08T08:48:49.597Z,21940.25
2022-08-08T08:51:18.739Z,21972.81
2022-08-08T08:53:56.172Z,21976.88
2022-08-08T08:56:29.837Z,21995.16
2022-08-08T08:59:01.491Z,22003.31
2022-08-08T09:01:35.433Z,22025.66
2022-08-08T09:04:31.746Z,22076.50
2022-08-08T09:07:03.264Z,22037.88
2022-08-08T09:09:47.832Z,22062.28
2022-08-08T09:12:20.311Z,22137.50
2022-08-08T09:14:50.168Z,22111.09
2022-08-08T09:17:23.704Z,22125.31
2022-08-08T09:21:57.369Z,22143.63
2022-08-08T09:23:00.161Z,22176.16
2022-08-08T09:25:36.084Z,22168.03
2022-08-08T09:28:35.427Z,22172.09
2022-08-08T09:31:16.413Z,22233.09
2022-08-08T09:34:14.958Z,22222.94
2022-08-08T09:36:51.891Z,22245.28
2022-08-08T09:39:53.848Z,22300.22
2022-08-08T09:42:27.940Z,22271.72
2022-08-08T09:45:20.733Z,22290.03
2022-08-08T09:48:09.966Z,22241.22
2022-08-08T09:50:50.196Z,22269.69
2022-08-08T09:53:31.930Z,22253.44
2022-08-08T09:56:21.819Z,22302.25
2022-08-08T09:59:07.852Z,22298.16
2022-08-08T10:02:02.088Z,22330.72
2022-08-08T10:04:38.468Z,22338.84
2022-08-08T10:07:17.678Z,22334.78
2022-08-08T10:09:59.461Z,22359.19
2022-08-08T10:12:37.902Z,22344.94
2022-08-08T10:15:20.938Z,22381.56
2022-08-08T10:18:05.783Z,22399.84
2022-08-08T10:20:51.484Z,22436.47
2022-08-08T10:23:44.236Z,22424.25
2022-08-08T10:26:29.838Z,22418.16
2022-08-08T10:29:05.624Z,22355.13
2022-08-08T10:31:53.306Z,22355.13
2022-08-08T10:34:28.795Z,22342.91
2022-08-08T10:36:59.787Z,22383.59
2022-08-08T10:39:31.375Z,22403.94
2022-08-08T10:42:16.619Z,22405.97
2022-08-08T10:44:46.082Z,22430.38
2022-08-08T10:47:21.079Z,22505.59
2022-08-08T10:50:00.467Z,22469.00
2022-08-08T10:52:34.265Z,22497.47
2022-08-08T10:55:06.803Z,22509.69
2022-08-08T10:57:50.514Z,22532.06
2022-08-08T11:00:26.976Z,22562.56
2022-08-08T11:02:56.695Z,22625.59
2022-08-08T11:05:38.469Z,22654.06
2022-08-08T11:08:37.756Z,22682.56
2022-08-08T11:11:07.772Z,22845.25
2022-08-08T11:13:41.086Z,22839.16
2022-08-08T11:16:31.960Z,22845.25
2022-08-08T11:19:02.917Z,22849.34
2022-08-08T11:21:37.888Z,22831.03
2022-08-08T11:24:10.003Z,22829.00
2022-08-08T11:26:56.968Z,22818.81
2022-08-08T11:29:41.330Z,22765.94
2022-08-08T11:32:22.070Z,22757.81
2022-08-08T11:35:27.370Z,22688.66
2022-08-08T11:38:36.801Z,22625.59
2022-08-08T11:40:51.527Z,22682.56
2022-08-08T11:43:24.441Z,22745.59
2022-08-08T11:46:09.544Z,22737.47
2022-08-08T11:48:44.827Z,22731.38
2022-08-08T11:51:38.333Z,22721.19
2022-08-08T11:54:26.937Z,22727.28
2022-08-08T11:57:14.606Z,22784.25
2022-08-08T12:00:00.498Z,22765.94
2022-08-08T12:02:33.942Z,22733.41
2022-08-08T12:05:12.454Z,22721.19
2022-08-08T12:07:51.550Z,22759.84
2022-08-08T12:10:24.849Z,22788.31
2022-08-08T12:13:04.130Z,22798.47
2022-08-08T12:15:42.367Z,22841.19
2022-08-08T12:18:21.534Z,22887.97
2022-08-08T12:20:54.735Z,22849.34
2022-08-08T12:23:43.078Z,22845.25
2022-08-08T12:26:28.425Z,22839.16
2022-08-08T12:29:21.268Z,22786.28
2022-08-08T12:32:02.989Z,22826.97
2022-08-08T12:34:48.688Z,22765.94
2022-08-08T12:37:22.677Z,22717.13
2022-08-08T12:40:01.070Z,22735.44
2022-08-08T12:42:33.236Z,22812.72
2022-08-08T12:45:53.528Z,22869.66
2022-08-08T12:48:09.608Z,22871.72
2022-08-08T12:50:49.281Z,22969.34
2022-08-08T12:53:24.756Z,23028.31
2022-08-08T12:56:18.833Z,23012.06
2022-08-08T12:58:54.593Z,23005.94
2022-08-08T13:01:36.779Z,22983.56
2022-08-08T13:04:19.255Z,22997.81
2022-08-08T13:07:02.907Z,22906.28
2022-08-08T13:09:43.116Z,22871.72
2022-08-08T13:12:30.329Z,22916.44
2022-08-08T13:15:04.237Z,22855.44
2022-08-08T13:18:07.790Z,22851.38
2022-08-08T13:20:25.951Z,22818.81
2022-08-08T13:23:30.981Z,22739.50
2022-08-08T13:25:50.176Z,22704.94
2022-08-08T13:28:32.145Z,22615.44
2022-08-08T13:31:04.098Z,22613.41
2022-08-08T13:33:41.885Z,22631.72
2022-08-08T13:36:12.314Z,22696.78
2022-08-08T13:38:42.525Z,22767.97
2022-08-08T13:41:16.732Z,22835.09
2022-08-08T13:43:47.372Z,22916.44
2022-08-08T13:46:28.708Z,23005.94
2022-08-08T13:49:12.122Z,23018.16
2022-08-08T13:51:58.130Z,23012.06
2022-08-08T13:54:31.613Z,23026.28
2022-08-08T13:57:03.548Z,23020.19
2022-08-08T13:59:40.828Z,23036.47
2022-08-08T14:02:21.402Z,23052.72
2022-08-08T14:05:04.879Z,23003.91
2022-08-08T14:07:42.369Z,23054.75
2022-08-08T14:10:17.116Z,23016.13
2022-08-08T14:12:47.164Z,23028.31
2022-08-08T14:15:31.603Z,22959.16
2022-08-08T14:18:37.050Z,22934.75
2022-08-08T14:21:04.125Z,22924.59
2022-08-08T14:24:07.452Z,22959.16
2022-08-08T14:26:33.272Z,22997.81
2022-08-08T14:29:05.985Z,23005.94
2022-08-08T14:32:09.344Z,22985.59
2022-08-08T14:34:39.408Z,22985.59
2022-08-08T14:37:13.273Z,23081.22
2022-08-08T14:39:49.772Z,23026.28
2022-08-08T14:42:32.575Z,22995.78
2022-08-08T14:45:05.953Z,23040.53
2022-08-08T14:47:52.696Z,23066.97
2022-08-08T14:50:38.110Z,23105.63
2022-08-08T14:53:13.714Z,23109.69
2022-08-08T14:55:43.662Z,23184.94
2022-08-08T14:58:16.853Z,23186.97
2022-08-08T15:00:49.953Z,23154.44
2022-08-08T15:03:18.597Z,23172.75
2022-08-08T15:05:54.420Z,23180.88
2022-08-08T15:08:35.542Z,23213.44
2022-08-08T15:11:11.030Z,23176.81
2022-08-08T15:14:00.959Z,23162.56
2022-08-08T15:16:34.084Z,23158.50
2022-08-08T15:19:04.574Z,23117.81
2022-08-08T15:21:34.390Z,23103.59
2022-08-08T15:24:13.744Z,23115.78
2022-08-08T15:26:44.078Z,23087.31
2022-08-08T15:29:22.370Z,23109.69
2022-08-08T15:32:17.749Z,23046.63
2022-08-08T15:34:40.632Z,23042.56
2022-08-08T15:37:13.019Z,23024.25
2022-08-08T15:39:41.443Z,22997.81
2022-08-08T15:42:17.885Z,23001.88
2022-08-08T15:44:58.519Z,23048.66
2022-08-08T15:47:26.789Z,22961.19
2022-08-08T15:49:55.251Z,22953.06
2022-08-08T15:52:25.708Z,22969.34
2022-08-08T15:54:55.152Z,22916.44
2022-08-08T15:57:24.245Z,22914.41
2022-08-08T16:00:06.745Z,22863.56
2022-08-08T16:02:50.578Z,22875.78
2022-08-08T16:05:21.463Z,22922.56
2022-08-08T16:07:54.125Z,22938.81
2022-08-08T16:13:11.735Z,23024.25
2022-08-08T16:13:28.419Z,23140.19
2022-08-08T16:16:09.457Z,23107.66
2022-08-08T16:18:52.866Z,23119.84
2022-08-08T16:21:27.547Z,23075.09
2022-08-08T16:23:59.448Z,23054.75
2022-08-08T16:26:34.440Z,23016.13
2022-08-08T16:29:07.720Z,22957.13
2022-08-08T16:31:40.361Z,22957.13
2022-08-08T16:34:09.059Z,22942.91
2022-08-08T16:36:37.985Z,22904.25
2022-08-08T16:39:09.786Z,22879.84
2022-08-08T16:41:51.183Z,22892.03
2022-08-08T16:44:27.853Z,22857.47
2022-08-08T16:47:17.762Z,22908.31
2022-08-08T16:49:50.035Z,22853.41
2022-08-08T16:55:07.106Z,22920.53
2022-08-08T16:55:54.481Z,22930.69
2022-08-08T16:58:15.359Z,22932.72
2022-08-08T17:00:48.861Z,22904.25
2022-08-08T17:03:24.240Z,22912.38
2022-08-08T17:05:56.374Z,22873.75
2022-08-08T17:08:24.549Z,22887.97
2022-08-08T17:10:58.757Z,22863.56
2022-08-08T17:13:49.861Z,22843.22
2022-08-08T17:16:22.304Z,22867.63
2022-08-08T17:18:52.654Z,22818.81
2022-08-08T17:21:21.425Z,22796.44
2022-08-08T17:24:00.903Z,22737.47
2022-08-08T17:26:33.259Z,22749.66
2022-08-08T17:29:03.992Z,22747.63
2022-08-08T17:31:44.860Z,22704.94
2022-08-08T17:34:53.765Z,22643.91
2022-08-08T17:37:09.074Z,22629.66
2022-08-08T17:40:03.703Z,22593.06
2022-08-08T17:42:27.682Z,22487.31
2022-08-08T17:44:58.049Z,22408.00
2022-08-08T17:47:28.261Z,22458.84
2022-08-08T17:50:08.469Z,22344.94
2022-08-08T17:52:39.059Z,22322.56
2022-08-08T17:56:03.870Z,22330.72
2022-08-08T17:58:02.248Z,22338.84
2022-08-08T18:00:31.938Z,22265.63
2022-08-08T18:03:08.436Z,22237.16
2022-08-08T18:05:49.836Z,22277.84
2022-08-08T18:08:25.227Z,22245.28
2022-08-08T18:11:11.806Z,22271.72
2022-08-08T18:13:45.778Z,22294.09
2022-08-08T18:16:16.859Z,22296.13
2022-08-08T18:18:52.465Z,22231.06
2022-08-08T18:21:59.071Z,22190.38
2022-08-08T18:24:19.482Z,22125.31
2022-08-08T18:26:55.385Z,22107.00
2022-08-08T18:29:32.953Z,22070.41
2022-08-08T18:32:05.487Z,22041.94
2022-08-08T18:34:37.778Z,22068.38
2022-08-08T18:37:08.267Z,22048.03
2022-08-08T18:39:41.894Z,22037.88
2022-08-08T18:42:16.096Z,22025.66
2022-08-08T18:44:54.722Z,21952.47
2022-08-08T18:47:25.275Z,21989.06
2022-08-08T18:49:58.968Z,21948.41
2022-08-08T18:52:30.093Z,21991.09
2022-08-08T18:55:09.015Z,21917.91
2022-08-08T18:57:43.425Z,21940.25
2022-08-08T19:00:20.278Z,21873.16
2022-08-08T19:02:56.984Z,21873.16
2022-08-08T19:05:34.784Z,21836.56
2022-08-08T19:08:25.497Z,21785.72
2022-08-08T19:11:01.833Z,21789.78
2022-08-08T19:13:52.750Z,21759.28
2022-08-08T19:16:23.483Z,21696.25
2022-08-08T19:19:02.041Z,21757.25
2022-08-08T19:21:33.620Z,21645.44
2022-08-08T19:24:39.384Z,21677.97
2022-08-08T19:27:07.667Z,21655.59
2022-08-08T19:29:40.747Z,21661.69
2022-08-08T19:32:19.534Z,21671.84
2022-08-08T19:34:51.771Z,21641.34
2022-08-08T19:37:43.920Z,21614.94
2022-08-08T19:40:14.690Z,21614.94
2022-08-08T19:42:45.814Z,21627.13
2022-08-08T19:45:59.915Z,21566.13
2022-08-08T19:48:28.245Z,21572.22
2022-08-08T19:50:54.644Z,21553.94
2022-08-08T19:53:51.883Z,21527.50
2022-08-08T19:56:12.073Z,21525.47
2022-08-08T19:58:41.889Z,21525.47
2022-08-08T20:01:18.906Z,21531.56
2022-08-08T20:04:00.386Z,21535.63
2022-08-08T20:06:30.744Z,21541.72
2022-08-08T20:08:59.784Z,21511.22
2022-08-08T20:11:32.621Z,21499.03
2022-08-08T20:14:12.339Z,21476.66
2022-08-08T20:16:48.904Z,21541.72
2022-08-08T20:19:22.719Z,21509.19
2022-08-08T20:21:51.012Z,21553.94
2022-08-08T20:24:19.300Z,21564.09
2022-08-08T20:26:49.272Z,21541.72
2022-08-08T20:29:18.202Z,21523.44
2022-08-08T20:32:07.243Z,21523.44
2022-08-08T20:34:36.823Z,21562.06
2022-08-08T20:37:15.728Z,21545.78
2022-08-08T20:39:51.619Z,21535.63
2022-08-08T20:42:28.645Z,21466.50
2022-08-08T20:44:59.561Z,21480.72
2022-08-08T20:47:36.622Z,21425.84
2022-08-08T20:50:09.937Z,21468.53
2022-08-08T20:52:39.384Z,21480.72
2022-08-08T20:55:22.563Z,21417.69
2022-08-08T20:57:53.865Z,21431.94
2022-08-08T21:00:26.450Z,21429.91
2022-08-08T21:02:54.715Z,21423.81
2022-08-08T21:05:24.422Z,21401.44
2022-08-08T21:08:37.211Z,21399.41
2022-08-08T21:10:50.047Z,21375.00
2022-08-08T21:13:18.245Z,21362.81
2022-08-08T21:16:05.850Z,21354.66
2022-08-08T21:18:34.711Z,21375.00
2022-08-08T21:21:19.594Z,21368.91
2022-08-08T21:24:02.480Z,21440.06
2022-08-08T21:26:33.330Z,21397.38
2022-08-08T21:29:02.683Z,21397.38
2022-08-08T21:31:58.652Z,21366.88
2022-08-08T21:34:19.623Z,21352.63
2022-08-08T21:36:51.157Z,21320.09
2022-08-08T21:39:21.893Z,21330.28
2022-08-08T21:41:53.837Z,21307.91
2022-08-08T21:44:27.609Z,21338.41
2022-08-08T21:48:08.148Z,21318.06
2022-08-08T21:49:44.171Z,21368.91
2022-08-08T21:54:33.262Z,21324.19
2022-08-08T21:55:04.237Z,21338.41
2022-08-08T21:58:04.215Z,21326.22
2022-08-08T22:00:40.651Z,21318.06
2022-08-08T22:03:11.152Z,21291.66
2022-08-08T22:05:55.984Z,21261.16
2022-08-08T22:08:27.836Z,21255.03
2022-08-08T22:11:05.647Z,21277.41
2022-08-08T22:13:54.226Z,21255.03
2022-08-08T22:16:24.577Z,21283.50
2022-08-08T22:18:54.029Z,21320.09
2022-08-08T22:21:22.305Z,21307.91
2022-08-08T22:23:53.554Z,21271.31
2022-08-08T22:26:29.244Z,21279.44
2022-08-08T22:29:13.855Z,21253.00
2022-08-08T22:31:58.424Z,21206.25
2022-08-08T22:34:31.482Z,21261.16
2022-08-08T22:36:59.770Z,21261.16
2022-08-08T22:39:39.526Z,21242.84
2022-08-08T22:42:14.633Z,21171.69
2022-08-08T22:44:55.402Z,21169.66
2022-08-08T22:47:23.551Z,21214.38
2022-08-08T22:50:02.795Z,21242.84
2022-08-08T22:52:33.634Z,21220.47
2022-08-08T22:55:06.678Z,21192.03
2022-08-08T22:57:43.880Z,21155.44
2022-08-08T23:00:18.246Z,21135.09
2022-08-08T23:02:50.162Z,21175.75
2022-08-08T23:05:21.384Z,21147.28
2022-08-08T23:07:57.264Z,21163.56
2022-08-08T23:10:28.009Z,21179.81
2022-08-08T23:12:56.647Z,21155.44
2022-08-08T23:16:37.967Z,21141.19
2022-08-08T23:18:13.888Z,21098.50
2022-08-08T23:20:43.486Z,21147.28
2022-08-08T23:23:13.203Z,21135.09
2022-08-08T23:25:48.001Z,21131.03
2022-08-08T23:28:18.918Z,21155.44
2022-08-08T23:30:48.031Z,21131.03
2022-08-08T23:33:21.031Z,21165.59
2022-08-08T23:36:08.884Z,21147.28
2022-08-08T23:38:41.590Z,21147.28
2022-08-08T23:41:23.177Z,21183.88
2022-08-08T23:43:56.476Z,21183.88
2022-08-08T23:49:04.768Z,21163.56
2022-08-08T23:49:18.736Z,21190.00
2022-08-08T23:52:06.034Z,21171.69
2022-08-08T23:54:42.970Z,21151.34
2022-08-08T23:57:38.717Z,21143.22
